Widecreek, Kentucky
Current Conditions -  °F | °C
As of 9:53 AM on Saturday 25 Oct 2014 (Local Time) from KJKL Reporting Station
Clear Clear  
Wind Chill: 49°   Ceiling: Unl
Heat Index: 49°   Visibility: 10mi
Dew Point: 42°   Wind: 3mph
Humidity: 77%   Direction: NA
Pressure: 30.07"   Gusts: NA
Location:  37.5908°N, 83.7186°W
Report Text: KJKL 251353Z AUTO VRB03KT 10SM CLR 09/06 A3007 RMK AO2 SLP181 T00940056
Loading
Personal Weather Stations






























Interactive Weather Map
Tropical Storm Tracking
New forecast layout! Learn more

10-Day Weather Forecast

Advertisements
Track Severe Weather on mobile